Time;durP1;ratioP1;P1;durP2;ratioP2;P2;SDS_P1;SDS_P2;PMS_P1;PMS_P2;Temp;Humidity;BMP_temperature;BMP_pressure;BME280_temperature;BME280_humidity;BME280_pressure;Samples;Min_cycle;Max_cycle;Signal;HPM_P1;HPM_P2
2021/12/11 07:52:26;;;;;;;2.43;2.30;;;;;;;9.37;68.46;93495.00;2603570;54;20446;-77
2021/12/11 07:54:55;;;;;;;2.80;2.05;;;;;;;9.66;67.00;93495.50;2614701;47;20392;-77
2021/12/11 07:57:24;;;;;;;2.00;1.90;;;;;;;8.11;63.71;93333.78;2616197;47;20190;-82
2021/12/11 07:59:53;;;;;;;2.33;1.80;;;;;;;8.48;66.98;93465.75;2617255;47;20153;-81
2021/12/11 08:02:22;;;;;;;5.13;4.30;;;;;;;6.96;66.35;93323.50;2617158;54;20400;-84
2021/12/11 08:04:52;;;;;;;1.67;1.67;;;;;;;7.35;71.60;93500.47;2616119;47;20190;-79
2021/12/11 08:07:23;;;;;;;2.80;2.60;;;;;;;6.15;70.93;93433.84;2615157;54;20391;-78
2021/12/11 08:09:53;;;;;;;1.77;1.67;;;;;;;4.46;73.73;93354.84;2615926;46;20665;-78
2021/12/11 08:12:22;;;;;;;1.70;1.70;;;;;;;5.19;78.86;93495.47;2616241;54;20677;-78
2021/12/11 08:14:51;;;;;;;2.47;2.37;;;;;;;4.49;79.20;93468.47;2616855;47;20145;-82
2021/12/11 08:17:20;;;;;;;1.13;1.13;;;;;;;4.68;79.36;93490.19;2616723;54;20252;-82
2021/12/11 08:19:49;;;;;;;1.43;1.43;;;;;;;4.97;80.80;93491.88;2617045;39;20604;-82
2021/12/11 08:22:18;;;;;;;2.83;2.47;;;;;;;4.62;78.92;93456.31;2616741;54;20160;-83
2021/12/11 08:24:50;;;;;;;1.57;1.57;;;;;;;4.21;79.17;93435.28;2616157;54;20157;-82
2021/12/11 08:27:21;;;;;;;0.97;0.97;;;;;;;4.32;80.69;93435.63;2616203;47;20160;-83
2021/12/11 08:29:53;;;;;;;1.73;1.73;;;;;;;4.54;79.39;93459.56;2616148;47;20157;-83
2021/12/11 08:32:24;;;;;;;2.37;2.20;;;;;;;4.38;78.39;93447.03;2615983;54;20176;-82
2021/12/11 08:35:02;;;;;;;0.90;0.90;;;;;;;4.47;81.58;93434.75;2616510;39;20647;-80
2021/12/11 08:37:31;;;;;;;2.23;2.13;;;;;;;4.79;79.00;93423.94;2616932;54;20168;-83
2021/12/11 08:40:02;;;;;;;2.27;1.97;;;;;;;5.22;75.77;93482.19;2616943;54;20177;-82
2021/12/11 08:42:31;;;;;;;1.10;1.10;;;;;;;5.02;76.18;93431.03;2617434;47;20661;-83
2021/12/11 08:45:05;;;;;;;1.60;1.53;;;;;;;4.77;75.71;93424.59;2617416;54;20703;-84
2021/12/11 08:47:36;;;;;;;1.63;1.63;;;;;;;5.09;75.09;93457.91;2617294;54;20173;-83
2021/12/11 08:50:07;;;;;;;1.47;1.47;;;;;;;4.96;73.44;93443.47;2617411;47;20165;-85
2021/12/11 08:52:39;;;;;;;1.27;1.17;;;;;;;3.66;73.71;93213.44;2616829;54;20168;-83
2021/12/11 08:55:23;;;;;;;0.70;0.70;;;;;;;5.47;73.90;93458.44;2617936;47;20152;-81
2021/12/11 08:57:53;;;;;;;2.10;1.33;;;;;;;5.54;72.24;93466.41;2616876;54;20156;-83
2021/12/11 09:00:31;;;;;;;0.80;0.80;;;;;;;4.86;72.75;93369.47;2616905;54;20153;-81
2021/12/11 09:03:06;;;;;;;1.23;1.23;;;;;;;5.45;72.16;93422.59;2617016;54;20156;-81
2021/12/11 09:05:40;;;;;;;1.20;1.20;;;;;;;5.81;70.72;93437.03;2617420;39;20561;-83
2021/12/11 09:08:14;;;;;;;0.70;0.70;;;;;;;5.82;70.21;93449.00;2616518;54;20266;-81
2021/12/11 09:10:51;;;;;;;1.57;1.47;;;;;;;5.58;70.69;93401.94;2616889;47;20219;-81
2021/12/11 09:13:24;;;;;;;0.87;0.87;;;;;;;5.15;70.82;93323.41;2616242;39;20565;-83
2021/12/11 09:15:57;;;;;;;1.00;1.00;;;;;;;6.21;70.40;93434.03;2618435;31;20624;-81
2021/12/11 09:18:29;;;;;;;0.80;0.80;;;;;;;5.78;70.63;93353.34;2616581;54;20160;-81
2021/12/11 09:21:03;;;;;;;1.13;1.13;;;;;;;6.34;70.15;93414.03;2616605;54;20415;-82
2021/12/11 09:23:38;;;;;;;1.30;1.30;;;;;;;6.43;69.75;93392.47;2617215;54;20149;-81
2021/12/11 09:26:20;;;;;;;0.63;0.63;;;;;;;7.45;73.05;93410.56;2616248;47;20164;-80
2021/12/11 09:28:53;;;;;;;3.07;1.27;;;;;;;6.99;69.01;93378.44;2616758;54;20164;-81
2021/12/11 09:31:33;;;;;;;0.80;0.80;;;;;;;7.54;68.27;93377.66;2616138;47;20737;-79
2021/12/11 09:34:07;;;;;;;4.20;1.97;;;;;;;7.62;65.53;93386.31;2616190;47;20181;-81
2021/12/11 09:36:38;;;;;;;1.07;1.00;;;;;;;7.83;65.98;93385.38;2616687;54;20175;-81
2021/12/11 09:39:11;;;;;;;0.83;0.83;;;;;;;7.65;64.74;93387.09;2616420;54;20172;-83
2021/12/11 09:41:39;;;;;;;3.60;1.63;;;;;;;7.79;67.35;93421.22;2615861;47;20676;-78
2021/12/11 09:44:16;;;;;;;1.60;1.60;;;;;;;7.89;75.16;93423.53;2616638;54;20157;-81
2021/12/11 09:46:53;;;;;;;1.63;1.63;;;;;;;7.38;66.89;93416.72;2616694;47;20141;-80
2021/12/11 09:49:29;;;;;;;1.07;1.07;;;;;;;6.96;66.62;93403.03;2616453;54;20153;-81
2021/12/11 09:52:15;;;;;;;1.00;1.00;;;;;;;6.57;68.65;93383.69;2616679;54;20164;-79
2021/12/11 09:54:48;;;;;;;0.90;0.90;;;;;;;6.39;67.50;93400.81;2616625;54;20178;-83
2021/12/11 09:57:22;;;;;;;1.03;1.03;;;;;;;6.23;69.27;93403.88;2615692;47;20183;-80
2021/12/11 09:59:56;;;;;;;3.10;2.03;;;;;;;4.18;69.05;93122.72;2616522;47;20160;-82
2021/12/11 10:02:32;;;;;;;7.50;1.60;;;;;;;6.20;69.58;93402.38;2616190;54;20148;-81
2021/12/11 10:05:07;;;;;;;0.87;0.87;;;;;;;5.91;69.69;93349.53;2616314;54;20691;-82
2021/12/11 10:07:49;;;;;;;0.90;0.90;;;;;;;6.20;69.36;93377.06;2616489;47;20160;-80
2021/12/11 10:10:24;;;;;;;0.90;0.90;;;;;;;5.20;68.25;93237.94;2616508;47;20149;-83
2021/12/11 10:12:55;;;;;;;1.10;1.10;;;;;;;6.21;68.40;93372.19;2616337;54;20879;-82
2021/12/11 10:15:29;;;;;;;0.90;0.90;;;;;;;6.28;68.74;93382.94;2615800;47;20157;-78
2021/12/11 10:18:05;;;;;;;2.00;1.90;;;;;;;5.99;69.08;93338.56;2616239;54;20160;-81
2021/12/11 10:20:40;;;;;;;0.80;0.80;;;;;;;6.32;68.79;93368.97;2615988;54;20696;-78
2021/12/11 10:23:12;;;;;;;1.37;1.37;;;;;;;5.97;68.71;93302.69;2616691;54;20710;-76
2021/12/11 10:25:44;;;;;;;1.03;1.03;;;;;;;6.56;67.67;93385.09;2616506;47;20145;-80
2021/12/11 10:28:17;;;;;;;0.83;0.83;;;;;;;6.20;68.21;93318.03;2616985;47;20180;-81
2021/12/11 10:30:52;;;;;;;0.90;0.90;;;;;;;6.56;67.80;93362.59;2614872;54;20406;-82
2021/12/11 10:33:24;;;;;;;0.50;0.50;;;;;;;6.17;69.29;93298.97;2616097;54;20201;-82
2021/12/11 10:35:57;;;;;;;1.30;1.30;;;;;;;5.61;67.50;93240.53;2617317;54;20212;-83
2021/12/11 10:38:26;;;;;;;1.80;1.70;;;;;;;6.71;68.33;93367.19;2616801;54;20152;-81
2021/12/11 10:40:58;;;;;;;0.80;0.80;;;;;;;6.66;68.36;93365.66;2611819;47;20660;-80
2021/12/11 10:43:35;;;;;;;1.40;1.23;;;;;;;6.60;67.96;93354.25;2617183;47;20153;-82
2021/12/11 10:46:08;;;;;;;1.90;0.90;;;;;;;6.66;68.29;93357.22;2616806;54;20156;-81
2021/12/11 10:48:38;;;;;;;1.47;1.47;;;;;;;6.59;68.28;93350.00;2618790;54;20152;-80
2021/12/11 10:51:18;;;;;;;0.90;0.90;;;;;;;6.27;68.69;93314.03;2618224;54;20272;-81
2021/12/11 10:53:49;;;;;;;1.00;1.00;;;;;;;6.64;68.31;93343.81;2617063;54;20306;-79
2021/12/11 10:56:21;;;;;;;1.50;1.40;;;;;;;6.64;68.88;93352.25;2617055;54;20157;-81
2021/12/11 10:58:53;;;;;;;1.83;1.73;;;;;;;6.69;68.52;93348.19;2617098;47;20174;-81
2021/12/11 11:01:29;;;;;;;1.60;1.50;;;;;;;6.59;67.87;93321.88;2616923;54;20261;-81
2021/12/11 11:04:02;;;;;;;1.67;1.57;;;;;;;6.38;68.34;93293.22;2617503;54;20149;-81
2021/12/11 11:06:31;;;;;;;1.50;1.50;;;;;;;6.75;68.97;93342.69;2617381;54;20164;-82
2021/12/11 11:09:00;;;;;;;4.07;1.00;;;;;;;6.76;69.48;93334.97;2616263;54;20157;-81
2021/12/11 11:11:34;;;;;;;1.30;1.20;;;;;;;6.89;68.43;93322.63;2616308;54;20152;-79
2021/12/11 11:14:04;;;;;;;1.47;1.37;;;;;;;6.67;68.94;93311.56;2616541;47;20700;-79
2021/12/11 11:16:36;;;;;;;1.43;1.33;;;;;;;6.78;68.12;93320.94;2616756;54;20153;-77
2021/12/11 11:19:08;;;;;;;0.90;0.90;;;;;;;6.77;68.45;93320.22;2616802;54;20702;-76
2021/12/11 11:21:42;;;;;;;2.20;2.00;;;;;;;6.66;68.88;93312.94;2616848;54;20175;-80
2021/12/11 11:24:12;;;;;;;0.83;0.83;;;;;;;6.58;68.42;93281.06;2617027;47;20153;-77
2021/12/11 11:26:44;;;;;;;0.80;0.80;;;;;;;6.80;68.36;93309.03;2616431;47;20156;-81
2021/12/11 11:29:18;;;;;;;1.03;1.03;;;;;;;6.87;68.27;93305.69;2617227;39;20542;-76
2021/12/11 11:32:51;;;;;;;0.77;0.77;;;;;;;6.01;68.01;93181.25;2616790;47;20737;-77
2021/12/11 11:35:25;;;;;;;1.10;1.10;;;;;;;5.78;67.63;93139.84;2614749;54;20160;-78
2021/12/11 11:37:57;;;;;;;0.50;0.50;;;;;;;6.80;68.41;93269.63;2616036;54;20164;-79
2021/12/11 11:40:31;;;;;;;3.50;1.67;;;;;;;6.94;68.21;93270.69;2616470;47;20993;-81
2021/12/11 11:43:02;;;;;;;0.63;0.63;;;;;;;6.54;69.16;93217.00;2616782;54;20689;-79
2021/12/11 11:45:33;;;;;;;0.93;0.93;;;;;;;6.64;68.38;93222.84;2616970;54;20153;-83
2021/12/11 11:48:01;;;;;;;0.93;0.93;;;;;;;7.10;69.53;93281.63;2616630;47;20665;-79
2021/12/11 11:50:36;;;;;;;0.80;0.80;;;;;;;7.18;69.45;93275.44;2616722;54;20149;-78
2021/12/11 11:53:06;;;;;;;1.27;1.27;;;;;;;6.94;70.08;93242.56;2616620;54;20160;-81
2021/12/11 11:55:39;;;;;;;0.40;0.40;;;;;;;7.27;71.52;93265.78;2616354;54;20157;-80
2021/12/11 11:58:08;;;;;;;1.20;1.20;;;;;;;6.98;68.18;93237.00;2616907;54;20176;-79
2021/12/11 12:00:42;;;;;;;1.47;1.43;;;;;;;7.31;68.58;93280.69;2616389;39;20549;-78
2021/12/11 12:03:14;;;;;;;2.87;1.27;;;;;;;7.26;68.70;93284.78;2615337;54;20676;-81
2021/12/11 12:05:48;;;;;;;1.10;1.10;;;;;;;6.39;68.65;93187.09;2615642;54;20153;-81
2021/12/11 12:08:18;;;;;;;1.03;1.03;;;;;;;6.60;69.24;93197.44;2616050;39;20654;-81
2021/12/11 12:10:48;;;;;;;2.65;2.38;;;;;;;6.68;69.88;93205.38;2615258;47;20942;-81
2021/12/11 12:13:19;;;;;;;1.83;1.70;;;;;;;7.12;69.86;93270.38;2615777;47;20810;-80
2021/12/11 12:15:50;;;;;;;2.50;2.40;;;;;;;7.07;69.75;93272.41;2615834;47;20202;-83
2021/12/11 12:18:21;;;;;;;6.17;1.70;;;;;;;6.58;69.81;93230.41;2616718;31;20616;-82
2021/12/11 12:20:57;;;;;;;2.50;2.23;;;;;;;6.92;69.88;93279.09;2615540;47;20183;-81
2021/12/11 12:23:31;;;;;;;1.47;1.23;;;;;;;6.62;70.06;93220.00;2615458;47;20172;-79
2021/12/11 12:26:06;;;;;;;2.00;2.00;;;;;;;6.55;70.59;93235.31;2615480;47;20168;-81
2021/12/11 12:28:36;;;;;;;1.30;1.30;;;;;;;6.90;70.79;93283.94;2615505;46;20187;-82
2021/12/11 12:31:09;;;;;;;2.23;1.63;;;;;;;6.77;71.04;93243.53;2615545;54;20692;-82
2021/12/11 12:33:38;;;;;;;9.40;1.43;;;;;;;4.92;70.48;92986.06;2615553;47;20153;-83
2021/12/11 12:36:18;;;;;;;2.10;1.50;;;;;;;7.13;70.02;93289.44;2615613;54;20181;-82
2021/12/11 12:38:48;;;;;;;1.80;1.70;;;;;;;5.63;69.71;93060.84;2615812;39;21253;-80
2021/12/11 12:41:23;;;;;;;1.00;0.97;;;;;;;6.42;69.70;93121.78;2615101;54;20156;-83
2021/12/11 12:46:58;;;;;;;1.17;1.17;;;;;;;7.06;69.64;93228.03;2614987;47;20251;-81
2021/12/11 12:49:29;;;;;;;2.10;1.47;;;;;;;7.28;69.34;93247.50;2615405;54;20746;-82
2021/12/11 12:52:10;;;;;;;1.13;1.10;;;;;;;6.87;70.75;93231.81;2615261;47;20170;-81
2021/12/11 12:54:39;;;;;;;1.05;0.98;;;;;;;7.32;70.70;93261.69;2615280;54;20969;-82
2021/12/11 12:57:17;;;;;;;1.43;1.43;;;;;;;7.52;71.21;93276.19;2615471;46;20145;-83
2021/12/11 12:59:53;;;;;;;0.80;0.80;;;;;;;7.45;71.44;93260.56;2615278;54;20157;-82
2021/12/11 13:02:25;;;;;;;1.80;1.70;;;;;;;7.40;71.48;93270.31;2615226;54;20205;-82
2021/12/11 13:04:58;;;;;;;1.30;1.30;;;;;;;7.41;71.99;93240.75;2615460;54;20160;-81
2021/12/11 13:07:29;;;;;;;1.50;1.50;;;;;;;7.59;71.97;93268.59;2615329;47;20256;-79
2021/12/11 13:10:01;;;;;;;1.93;1.83;;;;;;;7.59;73.01;93271.41;2615433;47;20164;-78
2021/12/11 13:12:32;;;;;;;1.63;1.53;;;;;;;7.52;71.73;93256.47;2615621;47;20160;-77
2021/12/11 13:15:06;;;;;;;0.80;0.80;;;;;;;7.37;72.73;93247.03;2616425;47;20237;-83
2021/12/11 13:17:38;;;;;;;2.53;1.40;;;;;;;7.21;72.85;93218.53;2615850;47;20159;-81
2021/12/11 13:20:16;;;;;;;1.53;1.33;;;;;;;7.54;73.35;93273.41;2615457;54;20157;-82
2021/12/11 13:22:50;;;;;;;1.00;1.00;;;;;;;6.50;73.09;93117.75;2615344;54;20156;-81
2021/12/11 13:25:25;;;;;;;0.83;0.83;;;;;;;6.14;73.86;93083.88;2616082;39;20610;-82
2021/12/11 13:27:59;;;;;;;0.90;0.90;;;;;;;7.13;75.54;93196.53;2615282;54;20156;-82
2021/12/11 13:30:31;;;;;;;0.80;0.80;;;;;;;7.62;77.24;93259.53;2615375;54;20168;-82
2021/12/11 13:33:05;;;;;;;0.80;0.80;;;;;;;7.12;73.78;93211.97;2615486;47;20176;-82
2021/12/11 13:35:43;;;;;;;1.23;1.10;;;;;;;7.00;73.64;93180.03;2615482;54;20181;-82
2021/12/11 13:38:17;;;;;;;0.80;0.80;;;;;;;7.97;73.66;93268.66;2615548;54;20252;-80
2021/12/11 13:40:50;;;;;;;0.63;0.63;;;;;;;7.72;73.89;93261.81;2615316;54;21043;-80
2021/12/11 13:43:20;;;;;;;0.83;0.83;;;;;;;7.51;73.86;93210.00;2615955;47;20153;-79
2021/12/11 13:45:52;;;;;;;0.93;0.93;;;;;;;7.42;73.59;93222.47;2615312;54;20149;-79
2021/12/11 13:48:22;;;;;;;2.13;1.03;;;;;;;7.51;77.54;93193.09;2615730;54;20157;-79
2021/12/11 13:50:56;;;;;;;1.17;1.17;;;;;;;7.66;73.96;93264.50;2616467;54;20153;-80
2021/12/11 13:53:28;;;;;;;0.80;0.80;;;;;;;7.24;74.18;93210.84;2616756;54;20171;-79
2021/12/11 13:55:58;;;;;;;0.70;0.70;;;;;;;7.68;74.27;93268.09;2615435;54;20153;-79
2021/12/11 13:58:27;;;;;;;0.97;0.97;;;;;;;7.78;74.04;93265.50;2615819;54;20274;-79
2021/12/11 14:00:59;;;;;;;1.00;1.00;;;;;;;7.70;74.45;93251.22;2615763;47;20869;-79
2021/12/11 14:03:31;;;;;;;1.53;1.43;;;;;;;6.80;74.36;93138.13;2615663;54;20256;-79
2021/12/11 14:06:04;;;;;;;2.17;2.03;;;;;;;7.54;74.70;93248.06;2615836;47;20178;-80
2021/12/11 14:08:38;;;;;;;0.80;0.80;;;;;;;7.77;74.34;93271.81;2615624;47;20275;-80
2021/12/11 14:11:08;;;;;;;0.80;0.80;;;;;;;7.74;74.08;93228.78;2615618;54;20191;-78
2021/12/11 14:13:40;;;;;;;0.80;0.80;;;;;;;7.73;73.79;93243.53;2615543;54;20153;-80
2021/12/11 14:16:11;;;;;;;2.07;1.97;;;;;;;7.58;74.13;93216.47;2615350;54;20255;-79
2021/12/11 14:18:46;;;;;;;0.80;0.80;;;;;;;6.61;74.43;93110.94;2615678;54;20209;-79
2021/12/11 14:21:15;;;;;;;0.67;0.67;;;;;;;7.49;77.93;93179.69;2615180;54;20168;-78
2021/12/11 14:23:50;;;;;;;0.97;0.97;;;;;;;8.01;74.52;93255.38;2615560;54;20741;-79
2021/12/11 14:26:23;;;;;;;0.83;0.83;;;;;;;7.71;74.39;93216.03;2615312;54;20156;-81
2021/12/11 14:28:54;;;;;;;0.73;0.73;;;;;;;7.29;74.17;93127.84;2615570;54;20153;-80
2021/12/11 14:31:25;;;;;;;1.50;1.43;;;;;;;7.81;75.69;93209.88;2616078;39;20885;-79
2021/12/11 14:33:54;;;;;;;0.80;0.80;;;;;;;7.47;75.23;93164.84;2615560;47;20832;-79
2021/12/11 14:36:27;;;;;;;0.60;0.60;;;;;;;7.61;75.01;93195.41;2615167;54;20182;-78
2021/12/11 14:39:04;;;;;;;1.47;1.47;;;;;;;8.10;75.29;93264.69;2615116;54;20157;-77
2021/12/11 14:41:34;;;;;;;2.73;1.20;;;;;;;8.08;75.31;93237.16;2614715;54;20184;-79
2021/12/11 14:44:06;;;;;;;0.87;0.87;;;;;;;8.14;75.70;93233.75;2615144;54;20181;-78
2021/12/11 14:46:35;;;;;;;1.47;1.37;;;;;;;8.30;75.40;93253.78;2614933;47;20153;-78
2021/12/11 14:49:07;;;;;;;1.00;1.00;;;;;;;7.87;76.41;93223.38;2615022;54;20665;-78
2021/12/11 14:51:38;;;;;;;2.40;2.00;;;;;;;8.03;78.23;93234.97;2615094;47;21216;-77
2021/12/11 14:54:13;;;;;;;1.33;1.33;;;;;;;7.53;77.55;93175.50;2615092;54;20221;-78
2021/12/11 14:56:47;;;;;;;1.60;1.50;;;;;;;8.07;76.72;93218.09;2615268;54;20248;-78
2021/12/11 14:59:22;;;;;;;2.07;1.90;;;;;;;7.79;76.32;93164.75;2614723;54;20418;-78
2021/12/11 15:01:56;;;;;;;2.57;1.57;;;;;;;8.17;77.01;93230.31;2615536;39;20845;-79
2021/12/11 15:04:29;;;;;;;1.13;1.13;;;;;;;8.29;76.91;93234.72;2615242;54;20153;-79
2021/12/11 15:07:00;;;;;;;1.10;1.10;;;;;;;7.99;77.52;93210.22;2615493;54;20157;-77
2021/12/11 15:09:32;;;;;;;1.90;1.80;;;;;;;8.34;77.58;93234.13;2615686;54;20407;-80
2021/12/11 15:12:02;;;;;;;0.80;0.80;;;;;;;8.37;76.88;93244.06;2615821;54;20161;-79
2021/12/11 15:14:30;;;;;;;1.07;1.07;;;;;;;7.99;77.21;93213.03;2616155;47;20153;-79
2021/12/11 15:17:04;;;;;;;1.07;1.07;;;;;;;8.21;77.49;93246.56;2616180;54;20160;-79
2021/12/11 15:19:34;;;;;;;1.77;1.77;;;;;;;7.68;77.96;93171.56;2616191;47;20182;-79
2021/12/11 15:22:03;;;;;;;1.10;1.10;;;;;;;7.99;77.64;93232.06;2616294;47;20149;-79
2021/12/11 15:24:36;;;;;;;2.60;1.43;;;;;;;7.93;78.64;93249.56;2616509;39;20482;-78
2021/12/11 15:27:08;;;;;;;1.53;1.50;;;;;;;7.36;79.47;93182.94;2616654;31;20631;-79
2021/12/11 15:29:37;;;;;;;1.87;1.60;;;;;;;7.84;79.86;93228.25;2615665;54;20157;-79
2021/12/11 15:32:08;;;;;;;2.50;2.30;;;;;;;7.83;79.84;93238.81;2615404;47;20190;-80
2021/12/11 15:34:37;;;;;;;1.00;1.00;;;;;;;7.45;79.69;93167.63;2615313;47;20153;-79
2021/12/11 15:37:09;;;;;;;2.07;1.97;;;;;;;7.90;79.56;93219.91;2615490;54;20156;-81
2021/12/11 15:39:45;;;;;;;2.53;1.00;;;;;;;7.96;79.58;93227.75;2615600;54;20170;-80
2021/12/11 15:42:14;;;;;;;1.43;1.43;;;;;;;6.75;78.70;93040.94;2615661;54;20212;-80
2021/12/11 15:44:48;;;;;;;1.07;0.97;;;;;;;8.29;78.22;93224.16;2616044;39;20595;-78
2021/12/11 15:47:21;;;;;;;1.27;1.27;;;;;;;8.39;77.75;93212.38;2615768;54;20164;-80
2021/12/11 15:49:50;;;;;;;1.97;1.87;;;;;;;7.84;78.95;93189.50;2615808;54;20165;-80
2021/12/11 15:52:20;;;;;;;1.73;1.73;;;;;;;8.08;79.22;93225.88;2615461;47;20249;-78
2021/12/11 15:54:52;;;;;;;2.13;2.03;;;;;;;7.65;80.55;93224.38;2615645;47;20164;-79
2021/12/11 15:57:27;;;;;;;2.90;2.80;;;;;;;7.27;81.58;93215.81;2615488;54;20687;-79
2021/12/11 15:59:56;;;;;;;2.03;1.77;;;;;;;7.33;82.50;93227.22;2615422;54;20149;-79
2021/12/11 16:02:27;;;;;;;2.13;1.63;;;;;;;6.88;83.01;93169.22;2615333;47;20245;-79
2021/12/11 16:04:57;;;;;;;7.47;5.57;;;;;;;6.80;82.55;93160.63;2615452;47;20997;-80
2021/12/11 16:07:28;;;;;;;5.43;4.53;;;;;;;7.10;82.63;93200.69;2615607;47;20177;-80
2021/12/11 16:10:02;;;;;;;6.57;3.13;;;;;;;6.47;83.23;93108.53;2615489;47;20152;-76
2021/12/11 16:12:31;;;;;;;2.40;2.27;;;;;;;6.94;82.07;93132.78;2615588;47;20160;-79
2021/12/11 16:15:00;;;;;;;3.40;3.17;;;;;;;6.14;81.80;93013.63;2615311;47;20153;-79
2021/12/11 16:17:29;;;;;;;8.97;4.80;;;;;;;6.64;82.14;93089.94;2615784;47;20213;-80
2021/12/11 16:20:01;;;;;;;2.70;2.47;;;;;;;7.18;82.17;93143.84;2615964;47;20182;-79
2021/12/11 16:22:33;;;;;;;3.47;3.07;;;;;;;8.01;81.00;93196.16;2615562;54;20265;-79
2021/12/11 16:25:14;;;;;;;2.47;2.37;;;;;;;8.08;80.23;93199.78;2615882;54;20153;-78
2021/12/11 16:27:43;;;;;;;2.67;2.60;;;;;;;7.64;79.27;93109.53;2615460;54;20161;-82
2021/12/11 16:30:17;;;;;;;4.27;2.37;;;;;;;7.75;79.97;93156.94;2615550;47;20187;-82
2021/12/11 16:32:46;;;;;;;1.43;1.43;;;;;;;7.85;80.26;93185.28;2615894;46;20156;-80
2021/12/11 16:35:16;;;;;;;4.50;3.83;;;;;;;7.70;79.62;93152.59;2615651;54;20153;-79
2021/12/11 16:37:51;;;;;;;3.00;2.80;;;;;;;7.23;81.12;93131.28;2615837;54;20149;-82
2021/12/11 16:40:23;;;;;;;2.47;2.27;;;;;;;7.77;81.32;93185.16;2615771;47;20651;-79
2021/12/11 16:43:08;;;;;;;2.77;2.47;;;;;;;7.86;81.08;93186.00;2615604;54;20161;-80
2021/12/11 16:45:40;;;;;;;3.30;3.00;;;;;;;8.41;81.40;93175.72;2615615;54;20160;-82
2021/12/11 16:48:11;;;;;;;2.47;2.37;;;;;;;8.31;79.08;93176.25;2615635;54;20157;-80
2021/12/11 16:50:43;;;;;;;3.27;2.37;;;;;;;6.81;80.11;92995.34;2615799;54;20255;-81
2021/12/11 16:53:22;;;;;;;2.63;2.43;;;;;;;7.62;80.85;93118.66;2615628;54;20172;-84
2021/12/11 16:56:07;;;;;;;3.13;1.93;;;;;;;5.85;81.19;92874.56;2617675;46;20153;-82
2021/12/11 16:58:39;;;;;;;5.30;4.80;;;;;;;6.94;82.57;93070.16;2618005;54;20708;-84
2021/12/11 17:01:22;;;;;;;4.43;2.37;;;;;;;6.38;83.07;93012.06;2616272;54;20153;-83
2021/12/11 17:03:53;;;;;;;1.83;1.83;;;;;;;5.62;84.39;92941.47;2615995;47;20157;-81
2021/12/11 17:06:24;;;;;;;3.40;3.20;;;;;;;6.47;85.82;93079.69;2615843;54;20688;-82
2021/12/11 17:09:02;;;;;;;8.23;2.50;;;;;;;6.03;85.66;93015.47;2615467;47;20180;-82
2021/12/11 17:11:32;;;;;;;2.60;2.50;;;;;;;6.06;85.78;93003.63;2615748;54;20592;-83
2021/12/11 17:14:01;;;;;;;5.07;2.43;;;;;;;7.28;85.78;93168.66;2615708;54;20186;-83
2021/12/11 17:16:34;;;;;;;3.07;2.83;;;;;;;6.64;85.90;93087.84;2615438;46;20160;-84
2021/12/11 17:19:03;;;;;;;3.00;2.67;;;;;;;6.86;85.91;93124.16;2615887;54;20164;-79
2021/12/11 17:21:32;;;;;;;4.57;3.60;;;;;;;6.94;85.97;93124.34;2616999;54;20412;-84
2021/12/11 17:24:07;;;;;;;3.77;3.47;;;;;;;6.01;85.37;92973.97;2619155;54;20157;-84
2021/12/11 17:26:45;;;;;;;2.63;2.23;;;;;;;6.16;85.25;92997.50;2620710;47;20193;-86
2021/12/11 17:29:17;;;;;;;1.50;1.27;;;;;;;7.47;84.44;93128.22;2619102;54;20152;-79
2021/12/11 17:31:46;;;;;;;2.97;2.70;;;;;;;7.83;83.47;93126.06;2615490;54;20205;-80
2021/12/11 17:34:18;;;;;;;2.93;2.73;;;;;;;7.08;83.60;93054.28;2615596;54;20165;-81
2021/12/11 17:36:48;;;;;;;1.83;1.73;;;;;;;7.76;83.44;93140.75;2615741;54;20156;-83
2021/12/11 17:39:22;;;;;;;2.70;2.47;;;;;;;6.36;84.04;92966.31;2615420;47;20664;-82
2021/12/11 17:41:52;;;;;;;1.50;1.43;;;;;;;6.51;84.98;93013.03;2615344;54;20152;-83
2021/12/11 17:44:21;;;;;;;2.97;2.60;;;;;;;6.62;85.26;93025.91;2615282;54;20156;-81
2021/12/11 17:46:50;;;;;;;1.80;1.80;;;;;;;7.04;85.69;93099.22;2615244;47;20187;-82
2021/12/11 17:49:20;;;;;;;1.90;1.67;;;;;;;6.55;86.42;93043.34;2615605;39;20579;-81
2021/12/11 17:51:49;;;;;;;1.80;1.70;;;;;;;7.10;86.50;93107.09;2615207;54;20669;-82
2021/12/11 17:54:29;;;;;;;2.20;2.10;;;;;;;6.97;86.80;93089.22;2615716;47;20172;-81
2021/12/11 17:56:59;;;;;;;2.10;2.10;;;;;;;7.02;86.68;93095.66;2615727;54;20209;-82
2021/12/11 17:59:31;;;;;;;1.80;1.70;;;;;;;7.07;87.16;93114.78;2615729;54;20157;-83
2021/12/11 18:02:09;;;;;;;2.57;2.40;;;;;;;6.32;87.34;93008.38;2615723;54;20272;-82
2021/12/11 18:04:58;;;;;;;1.87;1.77;;;;;;;5.52;87.72;92879.47;2615372;54;20164;-81
2021/12/11 18:07:41;;;;;;;3.27;3.07;;;;;;;5.60;87.91;92902.13;2615273;47;20759;-81
2021/12/11 18:10:16;;;;;;;2.47;2.37;;;;;;;5.99;88.44;92937.44;2615068;54;20187;-82
2021/12/11 18:13:13;;;;;;;4.27;3.13;;;;;;;5.68;87.97;92868.63;2615740;54;20259;-80
2021/12/11 18:15:49;;;;;;;3.67;2.60;;;;;;;5.07;88.05;92782.34;2615326;47;20854;-80
2021/12/11 18:18:21;;;;;;;2.13;2.00;;;;;;;6.59;88.58;92985.06;2615741;47;20691;-79
2021/12/11 18:21:04;;;;;;;1.97;1.93;;;;;;;7.63;88.86;93136.28;2615517;54;20157;-80
2021/12/11 18:23:35;;;;;;;2.93;1.20;;;;;;;5.48;88.49;92851.31;2615078;54;20187;-81
2021/12/11 18:29:19;;;;;;;2.60;2.30;;;;;;;7.29;90.08;93088.44;2614805;54;20226;-80
2021/12/11 18:31:56;;;;;;;1.63;1.53;;;;;;;5.73;90.22;92863.81;2615134;53;20175;-81
2021/12/11 18:34:30;;;;;;;1.77;1.77;;;;;;;5.66;90.96;92853.81;2614710;47;20153;-80
2021/12/11 18:37:02;;;;;;;2.13;2.10;;;;;;;5.55;90.65;92821.28;2616525;39;20592;-80
2021/12/11 18:39:46;;;;;;;1.47;1.47;;;;;;;7.04;90.90;93040.13;2615991;39;20562;-79
2021/12/11 18:42:21;;;;;;;1.90;1.90;;;;;;;5.20;90.84;92777.69;2616016;54;20181;-80
2021/12/11 18:44:52;;;;;;;2.67;2.40;;;;;;;7.55;91.64;93113.56;2616396;54;20189;-78
2021/12/11 18:47:33;;;;;;;1.47;1.47;;;;;;;7.60;91.31;93112.97;2616695;39;20675;-79
2021/12/11 18:50:02;;;;;;;2.43;2.27;;;;;;;5.69;91.35;92838.44;2616179;47;20163;-80
2021/12/11 18:52:35;;;;;;;2.70;2.60;;;;;;;7.05;91.20;93016.22;2616271;54;20176;-79
2021/12/11 18:58:09;;;;;;;2.80;2.60;;;;;;;6.21;90.53;92886.59;2616150;47;20164;-78
2021/12/11 19:00:45;;;;;;;10.93;4.50;;;;;;;6.89;90.67;92998.28;2616213;47;20149;-79
2021/12/11 19:06:15;;;;;;;4.33;4.00;;;;;;;6.69;91.77;92979.66;2614803;47;20195;-78
2021/12/11 19:08:44;;;;;;;6.20;4.03;;;;;;;7.41;92.30;93089.38;2616539;39;20562;-80
2021/12/11 19:11:23;;;;;;;3.73;1.50;;;;;;;5.95;92.05;92860.75;2616089;54;20163;-79
2021/12/11 19:14:00;;;;;;;1.90;1.80;;;;;;;6.96;92.39;93014.63;2616160;54;20177;-79
2021/12/11 19:16:30;;;;;;;4.73;3.00;;;;;;;6.04;92.60;92905.22;2615958;54;20186;-82
2021/12/11 19:19:02;;;;;;;1.83;1.73;;;;;;;7.30;93.15;93070.16;2616052;47;20751;-81
2021/12/11 19:21:39;;;;;;;1.77;1.70;;;;;;;4.54;92.53;92687.88;2615822;54;20157;-82
2021/12/11 19:24:10;;;;;;;1.70;1.60;;;;;;;5.55;92.96;92830.41;2616270;54;20186;-82
2021/12/11 19:26:50;;;;;;;1.23;1.23;;;;;;;4.80;92.67;92699.69;2616199;47;20168;-80
2021/12/11 19:32:47;;;;;;;2.53;1.43;;;;;;;6.14;92.66;92885.06;2613098;47;20172;-81
2021/12/11 19:35:16;;;;;;;1.20;1.10;;;;;;;6.21;92.72;92886.59;2614343;54;20165;-78
2021/12/11 19:37:45;;;;;;;0.90;0.90;;;;;;;6.87;92.73;92993.34;2613943;47;20164;-79
2021/12/11 19:40:28;;;;;;;;;;;;;;;;;;;;;
2021/12/11 19:42:57;;;;;;;1.47;1.37;;;;;;;5.98;92.16;92825.72;2615374;54;20185;-78
2021/12/11 19:45:28;;;;;;;1.33;1.23;;;;;;;7.45;92.02;93026.78;2615280;47;20157;-77
2021/12/11 19:48:34;;;;;;;1.00;1.00;;;;;;;5.63;91.88;92793.34;2615467;54;20771;-78
2021/12/11 19:51:10;;;;;;;0.90;0.90;;;;;;;5.42;92.11;92758.56;2615282;54;20250;-79
2021/12/11 19:53:46;;;;;;;0.73;0.70;;;;;;;7.37;92.56;93018.91;2615669;54;20200;-78
2021/12/11 19:56:20;;;;;;;1.00;1.00;;;;;;;4.94;92.19;92688.78;2615967;47;20156;-79
2021/12/11 19:58:52;;;;;;;0.90;0.90;;;;;;;7.17;92.79;92992.47;2618518;39;20573;-78
2021/12/11 20:01:38;;;;;;;0.60;0.60;;;;;;;7.00;92.91;92964.03;2615871;39;20602;-81
2021/12/11 20:04:10;;;;;;;1.17;1.17;;;;;;;7.19;92.61;92998.16;2615138;54;20167;-77
2021/12/11 20:07:17;;;;;;;0.77;0.77;;;;;;;6.88;92.97;92952.56;2615172;54;20685;-77
2021/12/11 20:10:01;;;;;;;;;;;;;;;;;;;;;
2021/12/11 20:12:35;;;;;;;1.13;0.97;;;;;;;6.62;92.60;92901.44;2615815;39;20614;-78
2021/12/11 20:15:08;;;;;;;1.70;1.60;;;;;;;5.35;92.34;92698.75;2614957;54;20396;-78
2021/12/11 20:17:53;;;;;;;1.90;1.77;;;;;;;6.19;91.89;92829.63;2615248;54;20700;-78
2021/12/11 20:20:35;;;;;;;;;;;;;;;;;;;;;
2021/12/11 20:23:07;;;;;;;1.10;1.10;;;;;;;5.24;91.76;92685.91;2615384;54;20168;-80